createdAt,value
2019-03-25T00:01:22.163Z,26.67
2019-03-25T00:03:54.887Z,23.07
2019-03-25T00:06:27.565Z,20.97
2019-03-25T00:09:05.300Z,19.50
2019-03-25T00:11:35.686Z,17.67
2019-03-25T00:14:08.369Z,22.43
2019-03-25T00:16:40.954Z,21.03
2019-03-25T00:19:13.077Z,16.17
2019-03-25T00:21:45.799Z,26.77
2019-03-25T00:24:18.365Z,23.30
2019-03-25T00:26:50.535Z,14.90
2019-03-25T00:29:23.113Z,25.73
2019-03-25T00:31:55.691Z,22.30
2019-03-25T00:34:28.170Z,27.50
2019-03-25T00:37:00.698Z,32.40
2019-03-25T00:39:33.226Z,18.37
2019-03-25T00:42:05.799Z,25.30
2019-03-25T00:44:38.376Z,17.97
2019-03-25T00:47:11.611Z,24.40
2019-03-25T00:49:44.044Z,22.03
2019-03-25T00:52:16.619Z,20.07
2019-03-25T00:54:50.403Z,24.67
2019-03-25T00:57:23.105Z,28.83
2019-03-25T00:59:55.678Z,24.90
2019-03-25T01:02:28.249Z,22.43
2019-03-25T01:05:01.026Z,22.27
2019-03-25T01:07:33.714Z,23.13
2019-03-25T01:10:09.150Z,26.57
2019-03-25T01:12:41.728Z,19.93
2019-03-25T01:15:14.309Z,16.63
2019-03-25T01:17:46.467Z,20.20
2019-03-25T01:20:18.966Z,23.23
2019-03-25T01:22:51.526Z,24.70
2019-03-25T01:25:24.006Z,18.23
2019-03-25T01:27:56.577Z,21.20
2019-03-25T01:30:29.159Z,27.23
2019-03-25T01:33:01.731Z,22.43
2019-03-25T01:35:34.316Z,24.20
2019-03-25T01:38:06.890Z,24.03
2019-03-25T01:40:39.463Z,22.43
2019-03-25T01:43:12.037Z,26.47
2019-03-25T01:45:45.535Z,20.27
2019-03-25T01:48:18.119Z,20.77
2019-03-25T01:50:50.693Z,21.67
2019-03-25T01:53:23.376Z,25.33
2019-03-25T01:55:55.838Z,22.90
2019-03-25T01:58:28.421Z,26.30
2019-03-25T02:01:01.001Z,26.53
2019-03-25T02:03:33.579Z,28.87
2019-03-25T02:06:06.158Z,29.53
2019-03-25T02:08:38.735Z,29.23
2019-03-25T02:11:11.415Z,25.70
2019-03-25T02:13:43.991Z,25.27
2019-03-25T02:16:16.553Z,22.83
2019-03-25T02:18:49.142Z,22.07
2019-03-25T02:21:22.023Z,25.33
2019-03-25T02:23:54.602Z,24.27
2019-03-25T02:26:27.181Z,23.23
2019-03-25T02:28:59.762Z,24.03
2019-03-25T02:31:32.228Z,21.27
2019-03-25T02:34:04.801Z,26.60
2019-03-25T02:36:36.938Z,25.63
2019-03-25T02:39:09.446Z,29.03
2019-03-25T02:41:42.026Z,22.93
2019-03-25T02:44:14.592Z,25.17
2019-03-25T02:46:47.189Z,26.83
2019-03-25T02:49:21.305Z,26.90
2019-03-25T02:51:53.873Z,24.00
2019-03-25T02:54:26.452Z,22.33
2019-03-25T02:56:58.913Z,24.70
2019-03-25T02:59:31.494Z,24.13
2019-03-25T03:02:04.067Z,22.43
2019-03-25T03:04:36.646Z,28.63
2019-03-25T03:07:10.151Z,22.63
2019-03-25T03:09:42.797Z,23.13
2019-03-25T03:12:15.295Z,19.57
2019-03-25T03:14:47.880Z,22.07
2019-03-25T03:17:20.472Z,20.67
2019-03-25T03:19:55.240Z,26.13
2019-03-25T03:22:27.309Z,19.90
2019-03-25T03:24:59.855Z,26.70
2019-03-25T03:27:32.414Z,22.60
2019-03-25T03:30:06.149Z,23.03
2019-03-25T03:32:38.688Z,27.33
2019-03-25T03:35:11.376Z,23.33
2019-03-25T03:37:43.938Z,22.87
2019-03-25T03:40:16.614Z,26.87
2019-03-25T03:42:49.198Z,26.90
2019-03-25T03:45:21.761Z,22.20
2019-03-25T03:47:54.350Z,23.23
2019-03-25T03:50:28.467Z,19.07
2019-03-25T03:53:01.037Z,22.93
2019-03-25T03:55:34.118Z,18.07
2019-03-25T03:58:06.688Z,23.70
2019-03-25T04:00:39.272Z,20.23
2019-03-25T04:03:12.771Z,21.80
2019-03-25T04:05:44.907Z,22.27
2019-03-25T04:08:17.419Z,22.60
2019-03-25T04:10:49.989Z,27.73
2019-03-25T04:13:22.565Z,21.70
2019-03-25T04:15:55.152Z,23.93
2019-03-25T04:18:27.822Z,21.97
2019-03-25T04:21:00.411Z,25.73
2019-03-25T04:23:32.880Z,22.47
2019-03-25T04:26:05.460Z,20.10
2019-03-25T04:28:37.991Z,25.23
2019-03-25T04:31:10.713Z,21.97
2019-03-25T04:33:43.295Z,16.43
2019-03-25T04:36:15.862Z,20.33
2019-03-25T04:38:48.030Z,20.03
2019-03-25T04:41:20.598Z,21.37
2019-03-25T04:43:54.548Z,22.97
2019-03-25T04:46:26.888Z,21.13
2019-03-25T04:48:59.466Z,18.87
2019-03-25T04:51:32.042Z,20.00
2019-03-25T04:54:04.613Z,21.57
2019-03-25T04:56:39.937Z,21.27
2019-03-25T04:59:11.409Z,25.20
2019-03-25T05:01:43.898Z,24.70
2019-03-25T05:04:16.451Z,19.10
2019-03-25T05:06:48.569Z,18.97
2019-03-25T05:09:22.231Z,16.30
2019-03-25T05:11:54.697Z,19.40
2019-03-25T05:14:27.285Z,16.00
2019-03-25T05:16:59.799Z,15.90
2019-03-25T05:19:32.336Z,14.17
2019-03-25T05:22:04.905Z,15.90
2019-03-25T05:24:37.475Z,23.03
2019-03-25T05:27:10.063Z,15.40
2019-03-25T05:29:42.639Z,15.77
2019-03-25T05:32:15.101Z,14.50
2019-03-25T05:34:47.678Z,15.90
2019-03-25T05:37:20.268Z,19.17
2019-03-25T05:39:54.060Z,21.37
2019-03-25T05:42:26.539Z,19.70
2019-03-25T05:44:59.118Z,23.53
2019-03-25T05:47:31.906Z,26.43
2019-03-25T05:50:05.185Z,29.73
2019-03-25T05:52:37.769Z,11.90
2019-03-25T05:55:10.454Z,19.27
2019-03-25T05:57:43.025Z,21.00
2019-03-25T06:00:17.040Z,16.17
2019-03-25T06:02:49.696Z,12.47
2019-03-25T06:05:22.301Z,18.67
2019-03-25T06:07:54.873Z,12.17
2019-03-25T06:10:27.456Z,16.20
2019-03-25T06:13:00.021Z,17.50
2019-03-25T06:15:32.604Z,11.07
2019-03-25T06:18:05.185Z,16.40
2019-03-25T06:20:37.747Z,14.00
2019-03-25T06:23:11.352Z,13.00
2019-03-25T06:25:43.995Z,18.17
2019-03-25T06:28:16.571Z,18.47
2019-03-25T06:30:49.190Z,22.77
2019-03-25T06:33:21.761Z,16.40
2019-03-25T06:35:54.346Z,9.07
2019-03-25T06:38:26.914Z,19.37
2019-03-25T06:40:59.501Z,17.43
2019-03-25T06:43:32.073Z,18.40
2019-03-25T06:46:04.644Z,24.00
2019-03-25T06:48:38.160Z,15.90
2019-03-25T06:51:10.834Z,12.33
2019-03-25T06:53:43.007Z,13.37
2019-03-25T06:56:15.566Z,17.37
2019-03-25T06:58:48.152Z,13.60
2019-03-25T07:01:20.613Z,13.97
2019-03-25T07:03:53.194Z,13.63
2019-03-25T07:06:25.539Z,15.47
2019-03-25T07:08:58.149Z,16.73
2019-03-25T07:11:30.730Z,17.37
2019-03-25T07:14:03.618Z,20.87
2019-03-25T07:16:36.189Z,13.73
2019-03-25T07:19:08.864Z,20.83
2019-03-25T07:21:41.471Z,14.80
2019-03-25T07:24:14.123Z,17.30
2019-03-25T07:26:46.698Z,14.90
2019-03-25T07:29:21.118Z,16.53
2019-03-25T07:31:53.696Z,13.10
2019-03-25T07:34:26.265Z,15.37
2019-03-25T07:36:58.846Z,17.93
2019-03-25T07:39:31.269Z,16.83
2019-03-25T07:42:03.791Z,12.20
2019-03-25T07:44:36.376Z,12.00
2019-03-25T07:47:08.952Z,14.20
2019-03-25T07:49:41.521Z,14.97
2019-03-25T07:52:14.004Z,19.30
2019-03-25T07:54:46.577Z,17.07
2019-03-25T07:57:19.174Z,12.30
2019-03-25T07:59:51.725Z,13.13
2019-03-25T08:02:24.416Z,17.30
2019-03-25T08:04:57.102Z,16.83
2019-03-25T08:07:29.673Z,14.20
2019-03-25T08:10:02.683Z,12.00
2019-03-25T08:12:35.436Z,12.33
2019-03-25T08:15:09.764Z,15.13
2019-03-25T08:17:42.332Z,16.67
2019-03-25T08:20:16.226Z,16.13
2019-03-25T08:22:48.704Z,15.13
2019-03-25T08:25:21.289Z,16.87
2019-03-25T08:28:00.041Z,14.77
2019-03-25T08:30:27.700Z,15.03
2019-03-25T08:33:00.247Z,15.00
2019-03-25T08:35:33.944Z,11.17
2019-03-25T08:38:06.167Z,14.07
2019-03-25T08:40:38.794Z,17.03
2019-03-25T08:43:11.374Z,12.63
2019-03-25T08:45:43.949Z,14.57
2019-03-25T08:48:16.399Z,9.97
2019-03-25T08:50:48.999Z,17.20
2019-03-25T08:53:21.567Z,15.20
2019-03-25T08:55:54.159Z,15.13
2019-03-25T08:58:26.733Z,13.87
2019-03-25T09:00:59.313Z,11.97
2019-03-25T09:03:31.874Z,16.27
2019-03-25T09:06:04.047Z,18.77
2019-03-25T09:08:36.527Z,12.03
2019-03-25T09:11:09.162Z,14.47
2019-03-25T09:13:41.681Z,10.77
2019-03-25T09:16:14.308Z,21.87
2019-03-25T09:18:47.243Z,13.00
2019-03-25T09:21:19.823Z,19.23
2019-03-25T09:23:52.290Z,15.77
2019-03-25T09:26:24.920Z,14.80
2019-03-25T09:28:57.449Z,14.37
2019-03-25T09:31:36.848Z,11.20
2019-03-25T09:34:04.541Z,14.90
2019-03-25T09:36:37.125Z,9.80
2019-03-25T09:39:10.109Z,13.30
2019-03-25T09:41:42.690Z,11.13
2019-03-25T09:44:15.259Z,8.13
2019-03-25T09:46:47.943Z,15.13
2019-03-25T09:49:20.523Z,11.43
2019-03-25T09:51:54.219Z,13.47
2019-03-25T09:54:26.819Z,11.80
2019-03-25T09:56:59.378Z,14.80
2019-03-25T09:59:31.955Z,11.70
2019-03-25T10:02:04.524Z,10.40
2019-03-25T10:04:38.134Z,13.40
2019-03-25T10:07:15.277Z,15.40
2019-03-25T10:09:47.886Z,10.80
2019-03-25T10:12:20.469Z,9.60
2019-03-25T10:14:52.604Z,15.30
2019-03-25T10:17:25.217Z,14.20
2019-03-25T10:19:58.865Z,12.07
2019-03-25T10:22:31.594Z,9.17
2019-03-25T10:25:04.690Z,10.23
2019-03-25T10:27:37.733Z,9.60
2019-03-25T10:30:16.176Z,13.07
2019-03-25T10:32:48.756Z,13.33
2019-03-25T10:35:22.364Z,7.33
2019-03-25T10:37:54.942Z,13.53
2019-03-25T10:40:27.507Z,9.13
2019-03-25T10:43:00.498Z,10.80
2019-03-25T10:45:33.071Z,9.17
2019-03-25T10:48:05.651Z,9.37
2019-03-25T10:50:38.231Z,10.53
2019-03-25T10:53:10.879Z,11.40
2019-03-25T10:55:43.393Z,11.07
2019-03-25T10:58:15.557Z,18.37
2019-03-25T11:00:48.644Z,16.27
2019-03-25T11:03:21.213Z,13.23
2019-03-25T11:05:53.797Z,10.17
2019-03-25T11:08:26.379Z,10.80
2019-03-25T11:10:58.945Z,9.27
2019-03-25T11:13:31.522Z,8.97
2019-03-25T11:16:04.408Z,8.93
2019-03-25T11:18:38.218Z,10.17
2019-03-25T11:21:10.795Z,14.13
2019-03-25T11:23:43.370Z,4.50
2019-03-25T11:26:15.940Z,9.00
2019-03-25T11:28:48.518Z,5.00
2019-03-25T11:31:20.985Z,3.70
2019-03-25T11:33:55.105Z,7.83
2019-03-25T11:36:27.733Z,8.27
2019-03-25T11:38:59.890Z,10.77
2019-03-25T11:41:32.434Z,7.20
2019-03-25T11:44:05.413Z,7.70
2019-03-25T11:46:37.527Z,7.97
2019-03-25T11:49:10.049Z,7.57
2019-03-25T11:51:42.524Z,12.53
2019-03-25T11:54:15.112Z,10.43
2019-03-25T11:56:47.681Z,11.40
2019-03-25T11:59:20.266Z,7.57
2019-03-25T12:01:52.840Z,7.40
2019-03-25T12:04:25.407Z,12.50
2019-03-25T12:06:58.506Z,9.73
2019-03-25T12:09:31.085Z,5.30
2019-03-25T12:12:03.551Z,4.30
2019-03-25T12:14:36.129Z,3.20
2019-03-25T12:17:08.709Z,24.23
2019-03-25T12:19:41.289Z,4.23
2019-03-25T12:22:14.781Z,4.83
2019-03-25T12:24:47.663Z,5.63
2019-03-25T12:27:20.582Z,22.57
2019-03-25T12:29:53.337Z,6.63
2019-03-25T12:32:25.915Z,8.40
2019-03-25T12:34:58.492Z,15.60
2019-03-25T12:37:32.493Z,9.10
2019-03-25T12:40:07.882Z,5.90
2019-03-25T12:42:40.926Z,7.53
2019-03-25T12:45:13.791Z,7.90
2019-03-25T12:47:45.929Z,10.07
2019-03-25T12:50:18.554Z,5.80
2019-03-25T12:52:51.133Z,6.30
2019-03-25T12:55:23.634Z,4.30
2019-03-25T12:57:55.762Z,3.60
2019-03-25T13:00:40.842Z,4.60
2019-03-25T13:03:13.310Z,5.33
2019-03-25T13:05:45.887Z,5.93
2019-03-25T13:08:18.473Z,5.23
2019-03-25T13:10:52.577Z,5.90
2019-03-25T13:13:25.157Z,4.07
2019-03-25T13:15:57.733Z,4.97
2019-03-25T13:18:30.316Z,3.93
2019-03-25T13:21:02.883Z,3.83
2019-03-25T13:23:35.368Z,3.70
2019-03-25T13:26:07.540Z,4.70
2019-03-25T13:28:39.998Z,4.13
2019-03-25T13:31:12.148Z,5.83
2019-03-25T13:33:44.678Z,6.13
2019-03-25T13:36:17.229Z,7.37
2019-03-25T13:38:50.829Z,7.93
2019-03-25T13:41:23.407Z,8.17
2019-03-25T13:43:55.987Z,11.20
2019-03-25T13:46:28.623Z,9.17
2019-03-25T13:49:01.137Z,9.50
2019-03-25T13:51:33.702Z,11.90
2019-03-25T13:54:07.088Z,11.00
2019-03-25T13:56:39.794Z,11.53
2019-03-25T13:59:12.359Z,12.03
2019-03-25T14:01:44.953Z,9.50
2019-03-25T14:04:17.409Z,12.53
2019-03-25T14:06:50.200Z,11.60
2019-03-25T14:09:22.772Z,12.80
2019-03-25T14:11:56.028Z,12.77
2019-03-25T14:14:28.168Z,14.57
2019-03-25T14:17:00.811Z,15.00
2019-03-25T14:19:33.394Z,12.83
2019-03-25T14:22:05.968Z,16.87
2019-03-25T14:24:38.535Z,13.83
2019-03-25T14:27:10.658Z,13.30
2019-03-25T14:29:43.177Z,15.20
2019-03-25T14:32:15.531Z,14.87
2019-03-25T14:34:48.126Z,13.33
2019-03-25T14:37:20.758Z,16.47
2019-03-25T14:39:53.388Z,18.73
2019-03-25T14:42:25.966Z,22.57
2019-03-25T14:44:58.537Z,21.07
2019-03-25T14:47:31.009Z,22.20
2019-03-25T14:50:03.591Z,18.63
2019-03-25T14:52:36.178Z,22.17
2019-03-25T14:55:09.354Z,21.23
2019-03-25T14:57:41.833Z,30.63
2019-03-25T15:00:24.712Z,32.33
2019-03-25T15:02:49.350Z,34.40
2019-03-25T15:05:21.910Z,9.73
2019-03-25T15:07:54.390Z,7.77
2019-03-25T15:10:29.783Z,3.07
2019-03-25T15:13:02.461Z,5.10
2019-03-25T15:15:34.994Z,6.87
2019-03-25T15:18:15.229Z,5.63
2019-03-25T15:20:41.586Z,6.57
2019-03-25T15:23:14.155Z,6.47
2019-03-25T15:25:46.835Z,6.63
2019-03-25T15:28:19.823Z,13.80
2019-03-25T15:30:52.398Z,12.40
2019-03-25T15:33:24.765Z,11.50
2019-03-25T15:35:57.341Z,10.07
2019-03-25T15:38:29.715Z,11.20
2019-03-25T15:41:02.294Z,11.13
2019-03-25T15:43:34.876Z,13.10
2019-03-25T15:46:07.451Z,29.67
2019-03-25T15:48:40.076Z,22.40
2019-03-25T15:51:13.837Z,17.47
2019-03-25T15:53:46.401Z,28.60
2019-03-25T15:56:18.978Z,15.80
2019-03-25T15:58:51.559Z,9.97
2019-03-25T16:01:25.053Z,16.43
2019-03-25T16:03:57.627Z,14.23
2019-03-25T16:06:30.208Z,19.30
2019-03-25T16:09:02.791Z,11.53
2019-03-25T16:11:35.678Z,7.53
2019-03-25T16:14:08.138Z,9.03
2019-03-25T16:16:40.726Z,13.50
2019-03-25T16:19:13.301Z,20.57
2019-03-25T16:21:45.885Z,15.57
2019-03-25T16:24:18.462Z,21.33
2019-03-25T16:26:51.035Z,23.83
2019-03-25T16:29:23.598Z,21.50
2019-03-25T16:31:56.187Z,11.93
2019-03-25T16:34:28.772Z,11.67
2019-03-25T16:37:02.777Z,15.67
2019-03-25T16:39:35.455Z,13.67
2019-03-25T16:42:08.032Z,11.67
2019-03-25T16:44:40.595Z,15.63
2019-03-25T16:47:13.177Z,12.90
2019-03-25T16:49:45.556Z,12.83
2019-03-25T16:52:18.126Z,12.43
2019-03-25T16:54:50.598Z,11.93
2019-03-25T16:57:23.170Z,12.73
2019-03-25T16:59:57.288Z,16.53
2019-03-25T17:02:29.865Z,13.90
2019-03-25T17:05:02.347Z,15.80
2019-03-25T17:07:35.220Z,14.93
2019-03-25T17:10:09.342Z,14.87
2019-03-25T17:12:41.503Z,15.93
2019-03-25T17:15:14.689Z,19.57
2019-03-25T17:17:47.971Z,18.97
2019-03-25T17:20:20.476Z,17.77
2019-03-25T17:22:53.048Z,17.07
2019-03-25T17:25:25.616Z,18.07
2019-03-25T17:27:58.198Z,12.10
2019-03-25T17:30:31.686Z,11.80
2019-03-25T17:33:04.276Z,13.07
2019-03-25T17:35:36.742Z,8.83
2019-03-25T17:38:09.383Z,7.60
2019-03-25T17:40:41.890Z,7.37
2019-03-25T17:43:14.473Z,6.80
2019-03-25T17:45:46.906Z,7.70
2019-03-25T17:48:19.530Z,6.73
2019-03-25T17:50:52.962Z,5.30
2019-03-25T17:53:25.323Z,4.33
2019-03-25T17:55:57.980Z,5.20
2019-03-25T17:58:30.553Z,6.13
2019-03-25T18:01:06.714Z,9.33
2019-03-25T18:03:38.864Z,7.93
2019-03-25T18:06:11.459Z,10.53
2019-03-25T18:08:44.030Z,9.43
2019-03-25T18:11:16.616Z,6.97
2019-03-25T18:13:49.181Z,5.33
2019-03-25T18:16:21.766Z,4.27
2019-03-25T18:18:54.441Z,8.47
2019-03-25T18:21:27.179Z,5.33
2019-03-25T18:24:01.734Z,6.77
2019-03-25T18:26:37.800Z,9.53
2019-03-25T18:29:10.376Z,5.03
2019-03-25T18:31:43.985Z,4.47
2019-03-25T18:34:16.660Z,8.30
2019-03-25T18:36:51.179Z,6.30
2019-03-25T18:39:23.760Z,7.23
2019-03-25T18:41:56.384Z,11.93
2019-03-25T18:44:29.013Z,11.47
2019-03-25T18:47:01.613Z,8.33
2019-03-25T18:49:34.172Z,9.83
2019-03-25T18:52:06.754Z,8.23
2019-03-25T18:54:40.751Z,7.50
2019-03-25T18:57:13.214Z,7.43
2019-03-25T18:59:47.655Z,6.93
2019-03-25T19:02:21.642Z,11.07
2019-03-25T19:04:56.826Z,9.30
2019-03-25T19:07:29.263Z,7.30
2019-03-25T19:10:03.081Z,7.63
2019-03-25T19:12:35.996Z,5.80
2019-03-25T19:15:09.258Z,5.43
2019-03-25T19:17:41.832Z,7.17
2019-03-25T19:20:14.415Z,6.40
2019-03-25T19:22:46.880Z,5.77
2019-03-25T19:25:19.458Z,5.50
2019-03-25T19:27:52.035Z,6.37
2019-03-25T19:30:24.657Z,8.47
2019-03-25T19:32:56.731Z,6.77
2019-03-25T19:35:30.146Z,7.97
2019-03-25T19:38:02.819Z,6.40
2019-03-25T19:40:34.961Z,8.00
2019-03-25T19:43:07.196Z,6.67
2019-03-25T19:45:40.091Z,5.23
2019-03-25T19:48:12.647Z,6.67
2019-03-25T19:50:45.249Z,5.50
2019-03-25T19:53:19.651Z,5.30
2019-03-25T19:55:52.435Z,5.67
2019-03-25T19:58:28.456Z,7.17
2019-03-25T20:01:02.707Z,6.50
2019-03-25T20:03:35.292Z,5.67
2019-03-25T20:06:09.034Z,6.33
2019-03-25T20:08:45.257Z,6.67
2019-03-25T20:11:18.483Z,7.13
2019-03-25T20:13:51.022Z,8.13
2019-03-25T20:16:23.602Z,9.90
2019-03-25T20:18:56.133Z,7.83
2019-03-25T20:21:28.805Z,6.20
2019-03-25T20:24:02.444Z,8.47
2019-03-25T20:26:36.537Z,7.63
2019-03-25T20:29:09.916Z,11.37
2019-03-25T20:31:45.814Z,8.77
2019-03-25T20:34:20.041Z,8.90
2019-03-25T20:36:55.594Z,10.70
2019-03-25T20:39:31.629Z,10.20
2019-03-25T20:42:06.733Z,7.27
2019-03-25T20:44:40.511Z,6.63
2019-03-25T20:47:16.381Z,8.03
2019-03-25T20:49:52.867Z,6.37
2019-03-25T20:52:25.473Z,8.57
2019-03-25T20:54:59.782Z,7.50
2019-03-25T20:57:34.684Z,9.03
2019-03-25T21:00:12.624Z,12.60
2019-03-25T21:02:48.685Z,12.03
2019-03-25T21:05:24.155Z,11.60
2019-03-25T21:07:58.825Z,16.67
2019-03-25T21:10:41.072Z,29.37
2019-03-25T21:13:17.932Z,13.20
2019-03-25T21:15:53.581Z,13.87
2019-03-25T21:18:27.993Z,13.37
2019-03-25T21:21:02.971Z,14.00
2019-03-25T21:23:36.673Z,11.97
2019-03-25T21:26:12.249Z,10.97
2019-03-25T21:28:52.573Z,10.43
2019-03-25T21:31:27.249Z,15.03
2019-03-25T21:34:00.842Z,16.50
2019-03-25T21:36:33.569Z,12.47
2019-03-25T21:39:08.528Z,11.83
2019-03-25T21:41:41.556Z,11.90
2019-03-25T21:44:17.177Z,15.87
2019-03-25T21:46:52.970Z,13.43
2019-03-25T21:49:25.778Z,12.20
2019-03-25T21:51:58.227Z,13.40
2019-03-25T21:54:30.961Z,13.90
2019-03-25T21:57:03.711Z,13.80
2019-03-25T21:59:36.291Z,12.30
2019-03-25T22:02:16.425Z,13.60
2019-03-25T22:04:52.269Z,11.33
2019-03-25T22:07:25.778Z,9.93
2019-03-25T22:10:00.072Z,12.83
2019-03-25T22:12:33.188Z,13.90
2019-03-25T22:15:09.438Z,12.03
2019-03-25T22:17:43.010Z,14.63
2019-03-25T22:20:18.156Z,12.60
2019-03-25T22:22:51.678Z,13.67
2019-03-25T22:25:24.289Z,13.70
2019-03-25T22:27:57.047Z,13.23
2019-03-25T22:30:33.424Z,14.60
2019-03-25T22:33:07.332Z,12.93
2019-03-25T22:35:40.426Z,14.37
2019-03-25T22:38:15.334Z,15.20
2019-03-25T22:40:49.183Z,15.40
2019-03-25T22:43:21.848Z,15.37
2019-03-25T22:45:56.954Z,14.97
2019-03-25T22:48:31.318Z,15.07
2019-03-25T22:51:04.951Z,16.13
2019-03-25T22:53:38.169Z,17.90
2019-03-25T22:56:10.843Z,15.43
2019-03-25T22:58:43.417Z,15.23
2019-03-25T23:01:16.193Z,14.77
2019-03-25T23:03:48.883Z,17.53
2019-03-25T23:06:21.345Z,14.63
2019-03-25T23:08:53.931Z,15.57
2019-03-25T23:11:26.406Z,14.17
2019-03-25T23:13:58.977Z,14.03
2019-03-25T23:16:31.656Z,14.90
2019-03-25T23:19:04.242Z,16.27
2019-03-25T23:21:37.441Z,19.90
2019-03-25T23:24:10.208Z,17.80
2019-03-25T23:26:42.354Z,17.93
2019-03-25T23:29:14.960Z,16.33
2019-03-25T23:31:47.533Z,15.43
2019-03-25T23:34:19.711Z,15.87
2019-03-25T23:36:52.384Z,14.63
2019-03-25T23:39:25.268Z,18.27
2019-03-25T23:41:58.144Z,17.13
2019-03-25T23:44:30.722Z,21.30
2019-03-25T23:47:03.297Z,18.70
2019-03-25T23:49:36.291Z,18.67
2019-03-25T23:52:08.961Z,18.00
2019-03-25T23:54:41.749Z,17.90
2019-03-25T23:57:14.534Z,14.67
2019-03-25T23:59:47.316Z,15.63
